Time;durP1;ratioP1;P1;durP2;ratioP2;P2;SDS_P1;SDS_P2;PMS_P1;PMS_P2;Temp;Humidity;BMP_temperature;BMP_pressure;BME280_temperature;BME280_humidity;BME280_pressure;Samples;Min_cycle;Max_cycle;Signal;HPM_P1;HPM_P2
2021/03/04 00:00:39;;;;;;;27.92;13.63;;;10.20;67.10;;;;;;4936860;29;20354;-77
2021/03/04 00:03:06;;;;;;;30.45;13.63;;;10.10;67.10;;;;;;4936137;29;20045;-77
2021/03/04 00:05:33;;;;;;;26.98;13.50;;;10.10;67.00;;;;;;4941399;29;20090;-77
2021/03/04 00:07:59;;;;;;;28.95;14.05;;;10.10;67.00;;;;;;4944165;29;20079;-77
2021/03/04 00:10:26;;;;;;;35.15;13.68;;;10.10;67.00;;;;;;4926318;29;20127;-78
2021/03/04 00:12:52;;;;;;;32.97;13.65;;;10.10;66.80;;;;;;4949632;29;20047;-77
2021/03/04 00:15:20;;;;;;;31.48;12.93;;;10.10;66.80;;;;;;4937295;28;20173;-78
2021/03/04 00:17:47;;;;;;;30.45;13.43;;;10.10;66.70;;;;;;4941245;29;20054;-78
2021/03/04 00:20:19;;;;;;;27.73;13.20;;;10.10;66.70;;;;;;4946159;29;20050;-76
2021/03/04 00:22:45;;;;;;;26.52;12.68;;;10.10;66.70;;;;;;4949134;29;20116;-78
2021/03/04 00:25:11;;;;;;;27.67;13.20;;;10.10;66.60;;;;;;4938870;29;20180;-74
2021/03/04 00:27:39;;;;;;;30.13;12.80;;;10.10;66.50;;;;;;4953921;29;20057;-74
2021/03/04 00:30:06;;;;;;;24.13;12.07;;;10.10;66.40;;;;;;4946551;29;20040;-74
2021/03/04 00:32:32;;;;;;;27.65;14.15;;;10.00;66.40;;;;;;4934578;29;20110;-74
2021/03/04 00:34:58;;;;;;;29.83;12.65;;;10.10;66.40;;;;;;4949254;29;20500;-74
2021/03/04 00:37:24;;;;;;;31.05;12.95;;;10.00;66.40;;;;;;4935240;29;20087;-78
2021/03/04 00:39:49;;;;;;;23.60;12.02;;;10.00;66.30;;;;;;4940108;29;20035;-74
2021/03/04 00:42:15;;;;;;;23.05;12.13;;;10.00;66.20;;;;;;4945200;29;20385;-75
2021/03/04 00:44:40;;;;;;;26.35;13.13;;;10.00;66.70;;;;;;4946386;29;20473;-74
2021/03/04 00:47:06;;;;;;;26.95;11.82;;;10.00;66.20;;;;;;4939464;28;20039;-74
2021/03/04 00:49:32;;;;;;;23.52;12.52;;;10.00;66.20;;;;;;4943427;29;20040;-75
2021/03/04 00:51:57;;;;;;;26.23;12.80;;;10.00;66.20;;;;;;4942691;29;20047;-75
2021/03/04 00:54:23;;;;;;;31.35;13.00;;;10.00;66.00;;;;;;4943234;29;20549;-79
2021/03/04 00:56:49;;;;;;;28.65;12.98;;;10.00;65.80;;;;;;4947903;29;20042;-74
2021/03/04 00:59:14;;;;;;;27.52;12.73;;;10.10;65.40;;;;;;4937629;29;20074;-75
2021/03/04 01:01:40;;;;;;;29.63;12.50;;;10.00;65.30;;;;;;4948691;29;20031;-74
2021/03/04 01:04:06;;;;;;;24.98;13.05;;;10.00;65.20;;;;;;4934426;29;20036;-74
2021/03/04 01:06:31;;;;;;;26.35;12.70;;;10.00;65.20;;;;;;4944936;28;20039;-74
2021/03/04 01:08:57;;;;;;;29.30;12.63;;;9.90;65.10;;;;;;4953046;28;20541;-74
2021/03/04 01:11:23;;;;;;;28.83;12.30;;;10.00;65.10;;;;;;4934465;29;20130;-77
2021/03/04 01:13:48;;;;;;;24.42;12.60;;;10.00;65.20;;;;;;4934777;29;20040;-74
2021/03/04 01:16:14;;;;;;;27.30;13.05;;;10.00;65.20;;;;;;4944830;29;20024;-75
2021/03/04 01:18:40;;;;;;;24.73;12.00;;;10.00;65.00;;;;;;4953580;29;20365;-74
2021/03/04 01:21:05;;;;;;;27.50;13.25;;;10.00;64.80;;;;;;4953885;29;20142;-74
2021/03/04 01:23:32;;;;;;;26.23;13.20;;;10.00;64.70;;;;;;4937083;29;20091;-73
2021/03/04 01:25:58;;;;;;;29.58;12.63;;;10.00;64.70;;;;;;4946773;29;20041;-74
2021/03/04 01:28:23;;;;;;;24.50;12.55;;;10.00;64.60;;;;;;4933802;29;20134;-76
2021/03/04 01:30:49;;;;;;;26.42;12.07;;;10.00;64.60;;;;;;4948941;29;20134;-74
2021/03/04 01:33:15;;;;;;;25.02;12.40;;;10.00;64.60;;;;;;4936512;29;20059;-74
2021/03/04 01:35:41;;;;;;;25.48;12.75;;;10.00;64.50;;;;;;4948478;29;20160;-75
2021/03/04 01:38:07;;;;;;;26.33;12.40;;;10.00;64.50;;;;;;4936201;29;20046;-75
2021/03/04 01:40:32;;;;;;;28.08;12.25;;;10.00;64.50;;;;;;4934994;29;20078;-74
2021/03/04 01:42:58;;;;;;;27.38;12.73;;;10.00;64.30;;;;;;4950271;29;20035;-75
2021/03/04 01:45:23;;;;;;;26.38;12.48;;;9.90;64.30;;;;;;4936471;29;20035;-77
2021/03/04 01:47:55;;;;;;;27.15;12.73;;;9.90;64.20;;;;;;4949035;28;20036;-74
2021/03/04 01:50:22;;;;;;;26.40;12.48;;;9.90;64.10;;;;;;4933867;29;20042;-75
2021/03/04 01:52:49;;;;;;;29.45;12.68;;;9.90;63.90;;;;;;4948400;29;20043;-75
2021/03/04 01:55:17;;;;;;;32.50;12.60;;;9.90;63.70;;;;;;4953051;29;20050;-76
2021/03/04 01:57:44;;;;;;;28.30;11.90;;;9.90;63.90;;;;;;4952815;29;20666;-76
2021/03/04 02:00:11;;;;;;;32.05;13.15;;;9.90;63.80;;;;;;4944986;29;20056;-75
2021/03/04 02:02:37;;;;;;;28.35;12.52;;;9.90;63.90;;;;;;4944628;29;20039;-78
2021/03/04 02:05:07;;;;;;;29.52;12.18;;;9.80;63.80;;;;;;4937615;29;20515;-74
2021/03/04 02:07:55;;;;;;;26.88;13.23;;;9.80;64.00;;;;;;4931488;29;20035;-74
2021/03/04 02:10:38;;;;;;;22.80;12.52;;;9.80;64.00;;;;;;4933513;29;20034;-78
2021/03/04 02:13:32;;;;;;;24.40;12.35;;;9.80;64.20;;;;;;4953323;29;20093;-74
2021/03/04 02:16:24;;;;;;;26.15;12.07;;;9.80;64.10;;;;;;4915319;29;20043;-74
2021/03/04 02:18:58;;;;;;;30.52;13.18;;;9.70;64.20;;;;;;4917313;29;20033;-74
2021/03/04 02:21:27;;;;;;;26.02;11.68;;;9.70;64.30;;;;;;4923826;29;20101;-75
2021/03/04 02:24:08;;;;;;;25.70;12.13;;;9.70;64.50;;;;;;4950608;29;20050;-77
2021/03/04 02:26:43;;;;;;;24.00;11.93;;;9.70;64.80;;;;;;4948211;29;20122;-77
2021/03/04 02:29:11;;;;;;;29.33;12.73;;;9.60;64.90;;;;;;4940578;29;20042;-77
2021/03/04 02:31:39;;;;;;;26.55;12.82;;;9.60;65.00;;;;;;4953042;28;20043;-77
2021/03/04 02:34:09;;;;;;;26.40;13.18;;;9.60;65.20;;;;;;4946090;29;20051;-75
2021/03/04 02:36:35;;;;;;;28.17;13.55;;;9.60;65.40;;;;;;4944585;29;20059;-76
2021/03/04 02:39:04;;;;;;;28.63;13.05;;;9.60;65.40;;;;;;4923818;29;20092;-76
2021/03/04 02:41:34;;;;;;;28.98;13.95;;;9.60;65.40;;;;;;4939403;29;20039;-76
2021/03/04 02:44:03;;;;;;;30.33;13.43;;;9.50;65.40;;;;;;4950766;28;20034;-76
2021/03/04 02:46:31;;;;;;;28.05;13.10;;;9.50;65.60;;;;;;4937447;29;20477;-79
2021/03/04 02:48:57;;;;;;;31.13;14.38;;;9.50;65.60;;;;;;4936188;29;20038;-80
2021/03/04 02:51:24;;;;;;;24.17;13.00;;;9.50;65.60;;;;;;4941834;29;20035;-80
2021/03/04 02:53:51;;;;;;;26.98;13.75;;;9.50;65.70;;;;;;4937989;29;20388;-79
2021/03/04 02:56:16;;;;;;;28.73;13.18;;;9.50;65.80;;;;;;4938292;29;20040;-79
2021/03/04 02:58:44;;;;;;;30.38;13.50;;;9.50;66.00;;;;;;4938840;29;20123;-79
2021/03/04 03:01:10;;;;;;;31.13;13.82;;;9.50;66.00;;;;;;4937818;29;20087;-80
2021/03/04 03:03:36;;;;;;;27.60;13.88;;;9.50;65.90;;;;;;4937498;29;20130;-80
2021/03/04 03:06:03;;;;;;;28.73;13.75;;;9.50;66.00;;;;;;4938256;29;20051;-79
2021/03/04 03:08:30;;;;;;;24.25;12.70;;;9.50;66.00;;;;;;4936750;29;20046;-80
2021/03/04 03:10:57;;;;;;;24.17;12.73;;;9.40;66.00;;;;;;4937707;29;20477;-79
2021/03/04 03:13:23;;;;;;;27.77;13.55;;;9.40;65.80;;;;;;4955081;29;20496;-80
2021/03/04 03:15:52;;;;;;;28.42;13.82;;;9.40;65.80;;;;;;4957192;29;20039;-80
2021/03/04 03:18:18;;;;;;;31.27;13.73;;;9.40;65.70;;;;;;4955572;29;20042;-80
2021/03/04 03:20:43;;;;;;;26.00;12.23;;;9.40;65.60;;;;;;4943913;29;20122;-79
2021/03/04 03:23:09;;;;;;;26.20;13.65;;;9.30;65.60;;;;;;4952921;29;20035;-80
2021/03/04 03:25:35;;;;;;;28.20;13.13;;;9.30;65.60;;;;;;4936944;29;20036;-80
2021/03/04 03:28:01;;;;;;;22.52;12.00;;;9.30;65.50;;;;;;4937829;29;20176;-79
2021/03/04 03:30:29;;;;;;;29.73;13.05;;;9.30;65.50;;;;;;4936766;29;20035;-80
2021/03/04 03:33:18;;;;;;;31.63;11.73;;;9.20;65.40;;;;;;4950606;29;20062;-80
2021/03/04 03:35:44;;;;;;;33.58;13.82;;;9.20;65.40;;;;;;4927164;29;20178;-80
2021/03/04 03:38:11;;;;;;;30.38;12.35;;;9.20;65.40;;;;;;4949191;28;20027;-79
2021/03/04 03:40:38;;;;;;;25.20;12.07;;;9.10;65.30;;;;;;4937748;29;20035;-79
2021/03/04 03:43:08;;;;;;;22.02;11.30;;;9.10;65.40;;;;;;4937213;29;20397;-79
2021/03/04 03:45:35;;;;;;;24.88;12.13;;;9.10;65.40;;;;;;4936647;29;20031;-79
2021/03/04 03:48:03;;;;;;;25.08;11.82;;;9.10;65.40;;;;;;4936898;29;20138;-78
2021/03/04 03:50:30;;;;;;;23.98;12.25;;;9.00;65.30;;;;;;4946814;29;20036;-79
2021/03/04 03:52:56;;;;;;;24.23;11.75;;;9.00;65.30;;;;;;4941518;29;20449;-78
2021/03/04 03:55:22;;;;;;;28.08;12.02;;;9.10;65.30;;;;;;4952676;29;20111;-78
2021/03/04 03:57:49;;;;;;;32.85;12.77;;;9.00;65.30;;;;;;4941212;29;20035;-78
2021/03/04 04:00:23;;;;;;;28.27;12.50;;;9.00;65.30;;;;;;4946772;29;20042;-78
2021/03/04 04:02:49;;;;;;;28.65;12.65;;;9.00;65.20;;;;;;4937462;29;20031;-78
2021/03/04 04:05:15;;;;;;;22.05;11.85;;;9.00;65.20;;;;;;4936429;29;20135;-78
2021/03/04 04:07:41;;;;;;;27.70;11.98;;;9.00;65.40;;;;;;4940558;29;20170;-78
2021/03/04 04:10:08;;;;;;;27.25;12.02;;;8.90;65.30;;;;;;4947860;29;20508;-78
2021/03/04 04:12:34;;;;;;;23.45;12.18;;;8.90;65.40;;;;;;4948599;29;20032;-78
2021/03/04 04:15:00;;;;;;;26.98;12.27;;;8.90;65.50;;;;;;4955615;29;20049;-78
2021/03/04 04:17:26;;;;;;;22.65;12.30;;;8.90;65.50;;;;;;4955086;29;20035;-78
2021/03/04 04:19:52;;;;;;;29.05;12.95;;;8.90;65.60;;;;;;4955779;29;20736;-78
2021/03/04 04:22:18;;;;;;;25.10;12.38;;;8.90;65.50;;;;;;4947128;28;20063;-78
2021/03/04 04:24:44;;;;;;;31.30;12.55;;;8.90;65.40;;;;;;4936084;29;20043;-78
2021/03/04 04:27:12;;;;;;;25.25;11.48;;;8.90;65.30;;;;;;4951957;29;20122;-78
2021/03/04 04:29:37;;;;;;;25.45;11.27;;;8.90;65.20;;;;;;4949773;29;20031;-78
2021/03/04 04:32:03;;;;;;;22.63;11.27;;;8.90;65.20;;;;;;4942736;29;20043;-78
2021/03/04 04:34:29;;;;;;;23.17;11.20;;;8.90;65.20;;;;;;4942909;29;20047;-78
2021/03/04 04:36:54;;;;;;;24.60;11.88;;;8.90;65.10;;;;;;4949536;29;20039;-77
2021/03/04 04:39:20;;;;;;;25.65;11.52;;;8.90;64.90;;;;;;4938359;29;20036;-78
2021/03/04 04:41:46;;;;;;;24.52;11.95;;;8.90;64.80;;;;;;4948875;28;20040;-78
2021/03/04 04:44:11;;;;;;;25.98;11.85;;;8.80;64.60;;;;;;4935928;29;20040;-77
2021/03/04 04:46:37;;;;;;;29.40;12.88;;;8.80;64.60;;;;;;4947775;29;20440;-78
2021/03/04 04:49:02;;;;;;;24.38;11.52;;;8.90;64.50;;;;;;4939104;29;20453;-78
2021/03/04 04:51:32;;;;;;;21.48;11.13;;;8.90;64.50;;;;;;4938189;29;20039;-78
2021/03/04 04:53:58;;;;;;;25.38;11.75;;;8.90;64.40;;;;;;4948866;28;20462;-78
2021/03/04 04:56:25;;;;;;;23.35;11.95;;;8.90;64.40;;;;;;4944438;29;20042;-78
2021/03/04 04:58:51;;;;;;;27.48;11.80;;;8.90;64.20;;;;;;4954550;29;20043;-77
2021/03/04 05:01:16;;;;;;;24.55;11.95;;;8.90;64.10;;;;;;4954950;29;20066;-78
2021/03/04 05:03:42;;;;;;;26.73;12.20;;;8.90;64.10;;;;;;4954379;29;20090;-79
2021/03/04 05:06:08;;;;;;;27.77;12.05;;;8.90;63.80;;;;;;4954793;29;20039;-79
2021/03/04 05:08:33;;;;;;;24.13;11.40;;;8.90;64.40;;;;;;4943944;29;20059;-78
2021/03/04 05:10:59;;;;;;;22.48;11.75;;;8.90;63.70;;;;;;4935410;29;20103;-78
2021/03/04 05:13:25;;;;;;;24.90;11.07;;;8.90;63.40;;;;;;4934764;29;20043;-80
2021/03/04 05:15:50;;;;;;;22.48;11.30;;;9.00;63.60;;;;;;4930522;29;20032;-79
2021/03/04 05:18:16;;;;;;;25.80;12.43;;;9.00;63.20;;;;;;4934696;29;20469;-79
2021/03/04 05:20:42;;;;;;;20.48;11.07;;;9.00;63.10;;;;;;4935980;29;20219;-79
2021/03/04 05:23:07;;;;;;;30.52;11.48;;;9.00;63.10;;;;;;4934390;29;20039;-77
2021/03/04 05:25:33;;;;;;;20.42;10.48;;;9.00;63.20;;;;;;4929074;29;20497;-79
2021/03/04 05:27:58;;;;;;;20.92;11.15;;;8.90;63.30;;;;;;4935536;29;20154;-79
2021/03/04 05:30:25;;;;;;;21.52;10.73;;;9.00;62.90;;;;;;4934027;29;20087;-81
2021/03/04 05:32:50;;;;;;;21.25;10.18;;;9.00;62.80;;;;;;4943315;29;20146;-79
2021/03/04 05:35:16;;;;;;;24.17;10.68;;;9.00;63.00;;;;;;4936886;29;20126;-79
2021/03/04 05:37:41;;;;;;;25.17;11.05;;;8.90;62.90;;;;;;4953465;29;20042;-79
2021/03/04 05:40:08;;;;;;;23.05;11.13;;;9.00;63.00;;;;;;4946427;29;20086;-79
2021/03/04 05:42:33;;;;;;;20.38;10.75;;;8.90;62.70;;;;;;4934932;29;20039;-79
2021/03/04 05:45:00;;;;;;;20.70;9.82;;;8.90;63.00;;;;;;4924992;29;20486;-79
2021/03/04 05:47:26;;;;;;;25.90;10.95;;;8.90;62.70;;;;;;4919836;29;20032;-80
2021/03/04 05:50:06;;;;;;;28.08;10.50;;;8.90;62.70;;;;;;4936056;29;20039;-79
2021/03/04 05:52:37;;;;;;;20.52;10.45;;;9.00;62.80;;;;;;4933126;29;20179;-79
2021/03/04 05:55:04;;;;;;;29.08;10.00;;;9.00;62.90;;;;;;4951137;29;20035;-79
2021/03/04 05:57:30;;;;;;;21.48;10.05;;;8.90;63.00;;;;;;4938352;28;20035;-80
2021/03/04 05:59:57;;;;;;;23.65;10.65;;;8.90;63.10;;;;;;4947823;29;20036;-80
2021/03/04 06:02:23;;;;;;;24.77;11.15;;;8.90;63.30;;;;;;4944211;29;20043;-81
2021/03/04 06:04:49;;;;;;;26.27;10.32;;;8.90;63.30;;;;;;4939699;29;20040;-79
2021/03/04 06:07:16;;;;;;;22.38;10.85;;;8.90;63.40;;;;;;4950484;29;20514;-80
2021/03/04 06:09:42;;;;;;;29.13;10.77;;;8.90;63.40;;;;;;4938194;29;20035;-80
2021/03/04 06:12:08;;;;;;;25.55;11.13;;;8.90;63.40;;;;;;4945723;29;20054;-79
2021/03/04 06:14:35;;;;;;;23.05;11.00;;;8.90;63.50;;;;;;4931621;29;20131;-79
2021/03/04 06:17:18;;;;;;;23.08;10.98;;;8.90;63.80;;;;;;4945316;29;20049;-80
2021/03/04 06:20:05;;;;;;;23.35;11.25;;;8.90;64.10;;;;;;4953228;29;20039;-79
2021/03/04 06:22:32;;;;;;;25.02;11.80;;;8.90;64.00;;;;;;4941738;29;20048;-79
2021/03/04 06:25:00;;;;;;;26.25;11.63;;;8.80;64.10;;;;;;4934145;29;20064;-79
2021/03/04 06:27:28;;;;;;;31.67;11.95;;;8.80;64.00;;;;;;4934261;29;20036;-81
2021/03/04 06:29:54;;;;;;;26.30;11.68;;;8.80;64.00;;;;;;4934578;29;20036;-79
2021/03/04 06:32:23;;;;;;;28.85;10.77;;;8.80;63.80;;;;;;4934667;29;20048;-79
2021/03/04 06:35:09;;;;;;;23.15;12.27;;;8.90;63.80;;;;;;4934401;29;20055;-80
2021/03/04 06:37:37;;;;;;;29.25;11.18;;;8.90;63.50;;;;;;4935320;29;20110;-80
2021/03/04 06:40:06;;;;;;;27.48;11.43;;;8.90;63.20;;;;;;4934847;29;20044;-80
2021/03/04 06:42:42;;;;;;;23.95;11.25;;;8.90;63.10;;;;;;4945605;29;20049;-80
2021/03/04 06:45:21;;;;;;;26.30;11.95;;;9.00;63.10;;;;;;4953867;29;20437;-79
2021/03/04 06:47:46;;;;;;;23.90;11.63;;;8.90;63.20;;;;;;4948371;29;20040;-79
2021/03/04 06:50:21;;;;;;;30.95;12.35;;;9.00;63.70;;;;;;4934761;29;20112;-78
2021/03/04 06:52:47;;;;;;;23.95;11.18;;;8.90;63.80;;;;;;4933819;29;20071;-78
2021/03/04 06:55:14;;;;;;;26.65;11.80;;;8.90;63.90;;;;;;4934533;29;20501;-78
2021/03/04 06:57:40;;;;;;;23.02;11.23;;;8.90;63.90;;;;;;4948497;29;20087;-79
2021/03/04 07:00:17;;;;;;;26.60;12.02;;;8.90;64.10;;;;;;4941809;29;20083;-78
2021/03/04 07:02:54;;;;;;;23.13;11.70;;;8.90;64.20;;;;;;4954316;28;20040;-78
2021/03/04 07:05:21;;;;;;;23.83;11.95;;;8.80;64.30;;;;;;4940314;28;20044;-79
2021/03/04 07:07:54;;;;;;;27.00;12.38;;;8.80;64.50;;;;;;4936660;29;20046;-78
2021/03/04 07:10:23;;;;;;;25.55;11.30;;;8.80;64.60;;;;;;4938974;28;20095;-78
2021/03/04 07:12:49;;;;;;;28.50;11.88;;;8.80;64.70;;;;;;4937017;29;20043;-78
2021/03/04 07:15:16;;;;;;;28.00;12.32;;;8.80;64.50;;;;;;4938694;29;20035;-79
2021/03/04 07:17:43;;;;;;;24.83;12.15;;;8.90;64.50;;;;;;4936777;29;20035;-78
2021/03/04 07:20:17;;;;;;;26.83;12.77;;;8.90;64.40;;;;;;4937614;29;20477;-79
2021/03/04 07:22:45;;;;;;;27.65;12.55;;;8.90;64.50;;;;;;4936971;29;20143;-78
2021/03/04 07:25:13;;;;;;;28.40;12.00;;;8.90;64.50;;;;;;4938579;29;20040;-78
2021/03/04 07:27:40;;;;;;;24.20;11.70;;;8.90;64.50;;;;;;4939298;29;20105;-78
2021/03/04 07:30:10;;;;;;;23.98;12.18;;;8.90;64.10;;;;;;4952903;28;20063;-77
2021/03/04 07:32:39;;;;;;;25.60;12.35;;;9.00;63.80;;;;;;4943890;29;20043;-79
2021/03/04 07:35:11;;;;;;;24.75;12.18;;;9.10;63.40;;;;;;4938202;29;20055;-77
2021/03/04 07:37:42;;;;;;;23.85;11.30;;;9.10;63.90;;;;;;4954694;29;20137;-78
2021/03/04 07:40:09;;;;;;;25.63;11.23;;;9.10;63.60;;;;;;4947728;29;20036;-79
2021/03/04 07:42:35;;;;;;;24.77;10.73;;;9.00;63.60;;;;;;4937079;29;20199;-78
2021/03/04 07:45:15;;;;;;;25.15;11.10;;;9.00;63.60;;;;;;4942847;29;20043;-80
2021/03/04 07:47:41;;;;;;;20.52;10.20;;;9.00;63.40;;;;;;4927121;29;20069;-82
2021/03/04 07:50:21;;;;;;;21.58;10.55;;;9.00;63.60;;;;;;4947376;29;20044;-78
2021/03/04 07:52:47;;;;;;;20.27;10.63;;;9.00;63.10;;;;;;4940416;29;20492;-76
2021/03/04 07:55:15;;;;;;;23.63;11.00;;;9.00;63.00;;;;;;4936258;29;20088;-79
2021/03/04 07:57:48;;;;;;;25.30;11.30;;;9.00;62.70;;;;;;4935365;29;20031;-78
2021/03/04 08:00:18;;;;;;;23.42;11.10;;;9.00;63.00;;;;;;4944770;29;20099;-77
2021/03/04 08:02:44;;;;;;;22.80;10.63;;;9.10;62.90;;;;;;4941925;29;20102;-77
2021/03/04 08:05:30;;;;;;;22.42;9.90;;;9.10;62.50;;;;;;4937177;29;20040;-76
2021/03/04 08:07:55;;;;;;;34.00;11.20;;;9.20;62.60;;;;;;4955483;29;20043;-78
2021/03/04 08:10:23;;;;;;;27.40;10.38;;;9.20;62.40;;;;;;4941488;29;20397;-77
2021/03/04 08:13:03;;;;;;;21.70;10.45;;;9.30;62.10;;;;;;4948594;29;20098;-77
2021/03/04 08:15:34;;;;;;;27.85;10.52;;;9.30;61.90;;;;;;4950644;28;20045;-76
2021/03/04 08:18:00;;;;;;;15.77;7.97;;;9.30;62.00;;;;;;4936198;29;20031;-77
2021/03/04 08:20:26;;;;;;;24.50;9.80;;;9.40;62.30;;;;;;4945959;29;20066;-81
2021/03/04 08:22:54;;;;;;;24.55;10.63;;;9.40;61.30;;;;;;4970557;28;20067;-78
2021/03/04 08:25:25;;;;;;;22.73;10.27;;;9.40;62.00;;;;;;4939087;29;20047;-78
2021/03/04 08:27:54;;;;;;;26.80;10.65;;;9.50;60.90;;;;;;4925472;29;20046;-78
2021/03/04 08:30:26;;;;;;;21.45;9.43;;;9.60;61.00;;;;;;4938035;29;20036;-80
2021/03/04 08:32:57;;;;;;;22.95;9.23;;;9.60;60.60;;;;;;4937183;29;20060;-80
2021/03/04 08:35:23;;;;;;;21.67;9.30;;;9.60;59.10;;;;;;4937046;29;20062;-80
2021/03/04 08:38:01;;;;;;;21.70;9.23;;;9.70;58.90;;;;;;4938500;29;20031;-80
2021/03/04 08:40:27;;;;;;;25.40;9.60;;;9.80;59.00;;;;;;4945017;29;20039;-78
2021/03/04 08:42:53;;;;;;;20.45;8.75;;;9.90;59.00;;;;;;4940120;29;20054;-77
2021/03/04 08:45:29;;;;;;;22.95;9.00;;;10.00;58.30;;;;;;4950610;29;20035;-77
2021/03/04 08:47:55;;;;;;;25.50;8.75;;;10.00;57.80;;;;;;4941094;29;20046;-76
2021/03/04 08:50:31;;;;;;;17.02;8.38;;;10.10;57.10;;;;;;4960287;28;20039;-77
2021/03/04 08:52:57;;;;;;;19.92;9.48;;;10.10;57.10;;;;;;4949607;29;20039;-77
2021/03/04 08:55:23;;;;;;;25.45;8.60;;;10.20;57.00;;;;;;4938582;29;20054;-77
2021/03/04 08:57:50;;;;;;;22.15;8.25;;;10.20;56.60;;;;;;4948726;29;20043;-82
2021/03/04 09:00:17;;;;;;;27.48;9.30;;;10.30;57.00;;;;;;4934599;29;20087;-79
2021/03/04 09:02:45;;;;;;;25.02;9.02;;;10.40;56.30;;;;;;4936029;29;20051;-78
2021/03/04 09:05:11;;;;;;;22.20;8.68;;;10.40;55.80;;;;;;4934906;29;20044;-78
2021/03/04 09:07:42;;;;;;;20.80;9.32;;;10.50;55.60;;;;;;4938454;29;20035;-80
2021/03/04 09:10:09;;;;;;;20.58;8.27;;;10.50;55.70;;;;;;4947536;29;20035;-86
2021/03/04 09:12:45;;;;;;;22.20;8.07;;;10.60;55.90;;;;;;4934401;29;20039;-83
2021/03/04 09:15:18;;;;;;;14.75;7.68;;;10.60;56.10;;;;;;4936932;29;20093;-79
2021/03/04 09:17:45;;;;;;;20.38;7.80;;;10.70;54.90;;;;;;4948603;29;20035;-78
2021/03/04 09:20:13;;;;;;;20.02;8.27;;;10.80;55.20;;;;;;4943106;29;20035;-79
2021/03/04 09:22:43;;;;;;;23.23;8.05;;;10.90;54.60;;;;;;4941556;29;20477;-79
2021/03/04 09:25:17;;;;;;;15.05;7.18;;;10.90;53.70;;;;;;4949894;29;20086;-79
2021/03/04 09:27:43;;;;;;;15.00;7.10;;;11.00;54.10;;;;;;4935233;29;20119;-78
2021/03/04 09:30:09;;;;;;;15.60;7.10;;;11.10;54.40;;;;;;4937267;29;20108;-78
2021/03/04 09:32:35;;;;;;;18.88;6.95;;;11.10;53.70;;;;;;4934025;29;20441;-79
2021/03/04 09:35:12;;;;;;;19.42;6.95;;;11.20;53.90;;;;;;4932218;29;20056;-78
2021/03/04 09:37:38;;;;;;;17.65;7.72;;;11.30;52.70;;;;;;4922623;29;20053;-79
2021/03/04 09:40:04;;;;;;;14.38;6.93;;;11.30;53.30;;;;;;4947080;28;20082;-77
2021/03/04 09:42:39;;;;;;;17.50;7.38;;;11.50;52.30;;;;;;4944740;29;20050;-78
2021/03/04 09:45:11;;;;;;;14.73;7.22;;;11.70;51.50;;;;;;4938589;29;20035;-80
2021/03/04 09:47:42;;;;;;;21.92;7.13;;;11.90;52.00;;;;;;4922310;29;20038;-82
2021/03/04 09:50:20;;;;;;;20.20;7.45;;;12.10;51.20;;;;;;4945406;29;20039;-81
2021/03/04 09:53:00;;;;;;;18.00;6.68;;;12.30;50.10;;;;;;4946938;29;20073;-81
2021/03/04 09:55:26;;;;;;;18.08;6.82;;;12.40;49.50;;;;;;4937091;28;20039;-80
2021/03/04 09:57:52;;;;;;;13.55;5.93;;;12.50;49.20;;;;;;4940356;29;20521;-80
2021/03/04 10:00:25;;;;;;;19.48;6.72;;;12.60;48.70;;;;;;4944400;29;20070;-83
2021/03/04 10:02:52;;;;;;;13.35;6.20;;;12.70;48.00;;;;;;4947956;29;20485;-80
2021/03/04 10:05:23;;;;;;;16.58;6.07;;;12.70;48.70;;;;;;4936236;29;20047;-83
2021/03/04 10:07:50;;;;;;;15.02;6.90;;;12.70;48.90;;;;;;4939525;29;20043;-79
2021/03/04 10:10:18;;;;;;;13.95;5.88;;;12.60;49.10;;;;;;4939258;28;20036;-82
2021/03/04 10:12:57;;;;;;;15.57;5.95;;;12.50;49.20;;;;;;4936065;29;20049;-82
2021/03/04 10:15:27;;;;;;;14.15;6.05;;;12.50;49.10;;;;;;4937141;29;20134;-82
2021/03/04 10:17:52;;;;;;;13.73;6.28;;;12.40;49.70;;;;;;4935454;29;20032;-78
2021/03/04 10:20:18;;;;;;;18.27;6.35;;;12.40;50.10;;;;;;4934561;29;20035;-82
2021/03/04 10:22:44;;;;;;;16.13;6.15;;;12.50;49.90;;;;;;4936439;29;20078;-80
2021/03/04 10:25:10;;;;;;;14.10;5.03;;;12.50;49.80;;;;;;4928336;29;20036;-79
2021/03/04 10:33:45;;;;;;;15.13;5.18;;;13.00;49.10;;;;;;4443612;23;21016;-75
2021/03/04 10:36:11;;;;;;;15.10;5.22;;;13.00;48.90;;;;;;4877894;29;20041;-73
2021/03/04 10:38:37;;;;;;;10.65;5.25;;;13.10;48.60;;;;;;4901348;29;20396;-73
2021/03/04 10:41:03;;;;;;;17.40;5.60;;;13.00;48.70;;;;;;4915423;29;20041;-73
2021/03/04 10:43:29;;;;;;;15.35;5.93;;;13.10;48.80;;;;;;4892344;29;20044;-74
2021/03/04 10:45:55;;;;;;;18.55;6.00;;;13.20;49.00;;;;;;4907687;29;20074;-73
2021/03/04 10:48:21;;;;;;;20.15;5.85;;;13.20;48.70;;;;;;4883541;29;20064;-77
2021/03/04 10:50:48;;;;;;;17.60;5.68;;;13.00;48.70;;;;;;4904658;29;20485;-72
2021/03/04 10:53:13;;;;;;;17.65;6.38;;;13.00;49.00;;;;;;4919311;29;20123;-74
2021/03/04 10:55:40;;;;;;;15.68;5.47;;;13.00;49.90;;;;;;4888498;29;20132;-73
2021/03/04 10:58:06;;;;;;;13.27;5.70;;;13.00;49.30;;;;;;4893789;29;20127;-72
2021/03/04 11:00:31;;;;;;;11.80;5.22;;;13.10;49.20;;;;;;4901623;29;20418;-74
2021/03/04 11:02:57;;;;;;;13.98;5.30;;;13.30;49.20;;;;;;4889067;29;20565;-73
2021/03/04 11:05:23;;;;;;;14.35;5.40;;;13.30;48.70;;;;;;4881374;29;20040;-76
2021/03/04 11:07:48;;;;;;;13.07;6.30;;;13.30;48.20;;;;;;4885406;29;20063;-73
2021/03/04 11:10:14;;;;;;;19.23;6.25;;;13.30;48.60;;;;;;4912436;29;20446;-73
2021/03/04 11:12:40;;;;;;;15.82;6.15;;;13.30;48.40;;;;;;4901528;29;20477;-73
2021/03/04 11:15:06;;;;;;;12.82;5.03;;;13.30;48.50;;;;;;4902080;29;20071;-72
2021/03/04 11:17:32;;;;;;;17.65;5.85;;;13.30;48.10;;;;;;4918010;29;20528;-73
2021/03/04 11:19:58;;;;;;;14.65;6.43;;;13.40;48.80;;;;;;4901701;29;20115;-72
2021/03/04 11:22:24;;;;;;;15.73;6.30;;;13.50;48.50;;;;;;4898416;29;20043;-75
2021/03/04 11:24:49;;;;;;;16.52;5.20;;;13.40;48.50;;;;;;4914859;29;20044;-73
2021/03/04 11:27:16;;;;;;;14.30;5.50;;;13.60;48.20;;;;;;4896597;29;20374;-73
2021/03/04 11:29:42;;;;;;;12.68;5.28;;;13.80;47.60;;;;;;4899654;29;20508;-74
2021/03/04 11:32:09;;;;;;;14.80;5.32;;;13.90;47.30;;;;;;4896850;29;20132;-73
2021/03/04 11:34:35;;;;;;;13.18;5.10;;;14.00;47.10;;;;;;4894907;29;20052;-74
2021/03/04 11:37:01;;;;;;;13.90;5.25;;;14.10;47.30;;;;;;4908845;29;20103;-73
2021/03/04 11:39:27;;;;;;;13.07;6.15;;;14.10;47.30;;;;;;4880299;29;20045;-74
2021/03/04 11:41:53;;;;;;;12.27;4.95;;;14.10;47.10;;;;;;4902451;29;20123;-73
2021/03/04 11:44:18;;;;;;;14.35;5.25;;;14.20;47.50;;;;;;4901528;29;20115;-73
2021/03/04 11:46:44;;;;;;;12.90;5.28;;;14.10;47.30;;;;;;4900312;29;20052;-73
2021/03/04 11:49:10;;;;;;;13.55;5.60;;;14.20;47.50;;;;;;4912159;29;20041;-72
2021/03/04 11:51:36;;;;;;;11.90;5.15;;;14.20;47.20;;;;;;4883595;29;20045;-73
2021/03/04 11:54:02;;;;;;;15.98;6.40;;;14.30;47.30;;;;;;4896248;29;20040;-73
2021/03/04 11:56:28;;;;;;;13.52;5.65;;;14.30;47.30;;;;;;4894086;29;20040;-73
2021/03/04 11:58:53;;;;;;;17.85;6.45;;;14.40;47.80;;;;;;4895020;29;20090;-72
2021/03/04 12:01:20;;;;;;;16.20;6.00;;;14.40;47.00;;;;;;4892062;29;20040;-72
2021/03/04 12:03:45;;;;;;;11.98;5.38;;;14.30;47.20;;;;;;4892856;29;20155;-73
2021/03/04 12:06:11;;;;;;;15.40;5.35;;;14.30;47.10;;;;;;4899152;29;20116;-73
2021/03/04 12:08:37;;;;;;;16.58;7.05;;;14.40;47.20;;;;;;4899416;29;20036;-73
2021/03/04 12:11:03;;;;;;;15.73;5.82;;;14.50;46.60;;;;;;4918012;29;20036;-73
2021/03/04 12:13:34;;;;;;;19.35;5.85;;;14.60;46.40;;;;;;4917341;29;20044;-73
2021/03/04 12:16:05;;;;;;;15.07;5.60;;;14.70;46.10;;;;;;4900691;29;20043;-73
2021/03/04 12:18:34;;;;;;;15.75;6.05;;;14.80;45.90;;;;;;4899477;29;20040;-73
2021/03/04 12:21:01;;;;;;;16.45;5.88;;;14.90;45.40;;;;;;4917303;29;20059;-73
2021/03/04 12:23:28;;;;;;;17.77;5.78;;;15.00;45.40;;;;;;4894243;29;20048;-74
2021/03/04 12:25:53;;;;;;;15.50;5.88;;;15.00;45.30;;;;;;4910244;29;20028;-73
2021/03/04 12:28:19;;;;;;;13.45;4.85;;;15.00;45.40;;;;;;4916899;29;20039;-73
2021/03/04 12:30:45;;;;;;;15.38;5.65;;;15.00;45.20;;;;;;4899416;29;20079;-73
2021/03/04 12:33:12;;;;;;;13.63;5.47;;;15.20;45.70;;;;;;4897508;29;20048;-73
2021/03/04 12:35:38;;;;;;;15.50;5.07;;;15.30;44.70;;;;;;4901376;29;20112;-73
2021/03/04 12:38:05;;;;;;;15.27;5.22;;;15.30;44.40;;;;;;4880979;29;20036;-73
2021/03/04 12:40:32;;;;;;;11.43;5.47;;;15.40;44.30;;;;;;4915114;29;20111;-73
2021/03/04 12:42:57;;;;;;;12.32;5.30;;;15.40;44.80;;;;;;4915765;29;20092;-73
2021/03/04 12:45:23;;;;;;;14.63;5.03;;;15.40;45.10;;;;;;4896859;29;20044;-75